sensor_id;sensor_type;location;lat;lon;timestamp;temperature;humidity
67817;DHT22;54614;47.576;7.524;2023-03-19T00:00:20;24.70;48.10
67817;DHT22;54614;47.576;7.524;2023-03-19T00:02:46;24.70;48.00
67817;DHT22;54614;47.576;7.524;2023-03-19T00:05:15;24.70;48.10
67817;DHT22;54614;47.576;7.524;2023-03-19T00:07:42;24.70;48.10
67817;DHT22;54614;47.576;7.524;2023-03-19T00:10:09;24.70;48.10
67817;DHT22;54614;47.576;7.524;2023-03-19T00:12:35;24.70;48.00
67817;DHT22;54614;47.576;7.524;2023-03-19T00:15:01;24.70;48.00
67817;DHT22;54614;47.576;7.524;2023-03-19T00:17:27;24.70;48.10
67817;DHT22;54614;47.576;7.524;2023-03-19T00:19:53;24.70;48.10
67817;DHT22;54614;47.576;7.524;2023-03-19T00:22:18;24.70;48.40
67817;DHT22;54614;47.576;7.524;2023-03-19T00:24:44;24.70;48.20
67817;DHT22;54614;47.576;7.524;2023-03-19T00:27:10;24.60;48.20
67817;DHT22;54614;47.576;7.524;2023-03-19T00:29:36;24.60;48.20
67817;DHT22;54614;47.576;7.524;2023-03-19T00:32:02;24.70;48.20
67817;DHT22;54614;47.576;7.524;2023-03-19T00:34:28;24.60;48.10
67817;DHT22;54614;47.576;7.524;2023-03-19T00:36:53;24.70;48.20
67817;DHT22;54614;47.576;7.524;2023-03-19T00:39:20;24.70;48.20
67817;DHT22;54614;47.576;7.524;2023-03-19T00:41:46;24.60;48.70
67817;DHT22;54614;47.576;7.524;2023-03-19T00:44:18;24.70;48.20
67817;DHT22;54614;47.576;7.524;2023-03-19T00:46:44;24.70;48.10
67817;DHT22;54614;47.576;7.524;2023-03-19T00:49:10;24.60;48.20
67817;DHT22;54614;47.576;7.524;2023-03-19T00:51:36;24.60;48.20
67817;DHT22;54614;47.576;7.524;2023-03-19T00:54:02;24.60;48.20
67817;DHT22;54614;47.576;7.524;2023-03-19T00:56:28;24.60;48.20
67817;DHT22;54614;47.576;7.524;2023-03-19T00:58:55;24.60;48.20
67817;DHT22;54614;47.576;7.524;2023-03-19T01:01:21;24.60;48.20
67817;DHT22;54614;47.576;7.524;2023-03-19T01:03:47;24.60;48.20
67817;DHT22;54614;47.576;7.524;2023-03-19T01:06:13;24.60;48.20
67817;DHT22;54614;47.576;7.524;2023-03-19T01:08:39;24.60;48.20
67817;DHT22;54614;47.576;7.524;2023-03-19T01:11:11;24.60;48.20
67817;DHT22;54614;47.576;7.524;2023-03-19T01:13:39;24.70;48.20
67817;DHT22;54614;47.576;7.524;2023-03-19T01:16:07;24.60;48.30
67817;DHT22;54614;47.576;7.524;2023-03-19T01:18:33;24.60;48.30
67817;DHT22;54614;47.576;7.524;2023-03-19T01:20:59;24.60;48.30
67817;DHT22;54614;47.576;7.524;2023-03-19T01:23:26;24.50;48.30
67817;DHT22;54614;47.576;7.524;2023-03-19T01:25:52;24.60;48.30
67817;DHT22;54614;47.576;7.524;2023-03-19T01:28:18;24.50;48.30
67817;DHT22;54614;47.576;7.524;2023-03-19T01:30:44;24.50;48.30
67817;DHT22;54614;47.576;7.524;2023-03-19T01:33:10;24.50;48.30
67817;DHT22;54614;47.576;7.524;2023-03-19T01:35:36;24.60;48.30
67817;DHT22;54614;47.576;7.524;2023-03-19T01:38:02;24.50;48.30
67817;DHT22;54614;47.576;7.524;2023-03-19T01:40:28;24.60;48.30
67817;DHT22;54614;47.576;7.524;2023-03-19T01:43:18;24.50;48.30
67817;DHT22;54614;47.576;7.524;2023-03-19T01:45:51;24.50;48.30
67817;DHT22;54614;47.576;7.524;2023-03-19T01:48:38;24.50;48.40
67817;DHT22;54614;47.576;7.524;2023-03-19T01:51:10;24.60;48.40
67817;DHT22;54614;47.576;7.524;2023-03-19T01:53:41;24.50;48.40
67817;DHT22;54614;47.576;7.524;2023-03-19T01:56:17;24.50;48.40
67817;DHT22;54614;47.576;7.524;2023-03-19T01:58:49;24.50;48.50
67817;DHT22;54614;47.576;7.524;2023-03-19T02:01:17;24.50;48.40
67817;DHT22;54614;47.576;7.524;2023-03-19T02:03:45;24.50;48.40
67817;DHT22;54614;47.576;7.524;2023-03-19T02:06:11;24.50;48.50
67817;DHT22;54614;47.576;7.524;2023-03-19T02:08:39;24.50;48.50
67817;DHT22;54614;47.576;7.524;2023-03-19T02:11:06;24.50;48.70
67817;DHT22;54614;47.576;7.524;2023-03-19T02:13:33;24.50;48.40
67817;DHT22;54614;47.576;7.524;2023-03-19T02:16:00;24.50;48.50
67817;DHT22;54614;47.576;7.524;2023-03-19T02:18:25;24.50;48.60
67817;DHT22;54614;47.576;7.524;2023-03-19T02:26:26;24.50;48.60
67817;DHT22;54614;47.576;7.524;2023-03-19T02:28:53;24.40;48.60
67817;DHT22;54614;47.576;7.524;2023-03-19T02:31:20;24.40;48.60
67817;DHT22;54614;47.576;7.524;2023-03-19T02:34:04;24.50;48.60
67817;DHT22;54614;47.576;7.524;2023-03-19T02:36:40;24.50;48.60
67817;DHT22;54614;47.576;7.524;2023-03-19T02:39:30;24.50;48.60
67817;DHT22;54614;47.576;7.524;2023-03-19T02:42:03;24.50;48.60
67817;DHT22;54614;47.576;7.524;2023-03-19T02:44:30;24.50;48.70
67817;DHT22;54614;47.576;7.524;2023-03-19T02:46:56;24.40;48.60
67817;DHT22;54614;47.576;7.524;2023-03-19T02:49:22;24.50;48.60
67817;DHT22;54614;47.576;7.524;2023-03-19T02:51:49;24.40;48.70
67817;DHT22;54614;47.576;7.524;2023-03-19T02:54:15;24.40;48.60
67817;DHT22;54614;47.576;7.524;2023-03-19T02:56:41;24.50;48.60
67817;DHT22;54614;47.576;7.524;2023-03-19T02:59:07;24.50;48.60
67817;DHT22;54614;47.576;7.524;2023-03-19T03:01:34;24.40;48.60
67817;DHT22;54614;47.576;7.524;2023-03-19T03:04:00;24.50;48.80
67817;DHT22;54614;47.576;7.524;2023-03-19T03:06:26;24.40;48.70
67817;DHT22;54614;47.576;7.524;2023-03-19T03:08:51;24.40;48.60
67817;DHT22;54614;47.576;7.524;2023-03-19T03:11:17;24.40;48.70
67817;DHT22;54614;47.576;7.524;2023-03-19T03:13:43;24.50;48.70
67817;DHT22;54614;47.576;7.524;2023-03-19T03:16:09;24.50;48.60
67817;DHT22;54614;47.576;7.524;2023-03-19T03:18:34;24.50;48.60
67817;DHT22;54614;47.576;7.524;2023-03-19T03:21:01;24.40;48.60
67817;DHT22;54614;47.576;7.524;2023-03-19T03:23:27;24.40;48.80
67817;DHT22;54614;47.576;7.524;2023-03-19T03:25:53;24.40;48.70
67817;DHT22;54614;47.576;7.524;2023-03-19T03:28:19;24.40;48.80
67817;DHT22;54614;47.576;7.524;2023-03-19T03:30:45;24.40;48.80
67817;DHT22;54614;47.576;7.524;2023-03-19T03:33:11;24.40;48.90
67817;DHT22;54614;47.576;7.524;2023-03-19T03:35:37;24.40;48.80
67817;DHT22;54614;47.576;7.524;2023-03-19T03:38:04;24.40;48.80
67817;DHT22;54614;47.576;7.524;2023-03-19T03:40:31;24.40;48.80
67817;DHT22;54614;47.576;7.524;2023-03-19T03:42:57;24.40;48.80
67817;DHT22;54614;47.576;7.524;2023-03-19T03:45:23;24.40;48.70
67817;DHT22;54614;47.576;7.524;2023-03-19T03:47:49;24.40;48.80
67817;DHT22;54614;47.576;7.524;2023-03-19T03:50:15;24.30;48.90
67817;DHT22;54614;47.576;7.524;2023-03-19T03:52:41;24.40;48.80
67817;DHT22;54614;47.576;7.524;2023-03-19T03:55:08;24.40;48.80
67817;DHT22;54614;47.576;7.524;2023-03-19T03:57:34;24.40;48.80
67817;DHT22;54614;47.576;7.524;2023-03-19T04:00:00;24.40;48.80
67817;DHT22;54614;47.576;7.524;2023-03-19T04:02:26;24.40;48.80
67817;DHT22;54614;47.576;7.524;2023-03-19T04:04:52;24.40;48.80
67817;DHT22;54614;47.576;7.524;2023-03-19T04:07:19;24.30;48.80
67817;DHT22;54614;47.576;7.524;2023-03-19T04:09:45;24.30;48.80
67817;DHT22;54614;47.576;7.524;2023-03-19T04:12:12;24.30;48.80
67817;DHT22;54614;47.576;7.524;2023-03-19T04:14:38;24.40;48.70
67817;DHT22;54614;47.576;7.524;2023-03-19T04:17:04;24.30;48.70
67817;DHT22;54614;47.576;7.524;2023-03-19T04:19:31;24.30;48.60
67817;DHT22;54614;47.576;7.524;2023-03-19T04:21:57;24.30;48.60
67817;DHT22;54614;47.576;7.524;2023-03-19T04:24:24;24.40;48.50
67817;DHT22;54614;47.576;7.524;2023-03-19T04:26:50;24.30;48.50
67817;DHT22;54614;47.576;7.524;2023-03-19T04:29:17;24.30;48.60
67817;DHT22;54614;47.576;7.524;2023-03-19T04:31:43;24.30;48.60
67817;DHT22;54614;47.576;7.524;2023-03-19T04:34:10;24.30;48.60
67817;DHT22;54614;47.576;7.524;2023-03-19T04:36:36;24.30;48.70
67817;DHT22;54614;47.576;7.524;2023-03-19T04:39:03;24.30;48.70
67817;DHT22;54614;47.576;7.524;2023-03-19T04:41:29;24.30;48.70
67817;DHT22;54614;47.576;7.524;2023-03-19T04:43:55;24.30;48.70
67817;DHT22;54614;47.576;7.524;2023-03-19T04:46:21;24.40;48.70
67817;DHT22;54614;47.576;7.524;2023-03-19T04:48:47;24.40;48.70
67817;DHT22;54614;47.576;7.524;2023-03-19T04:51:13;24.30;48.70
67817;DHT22;54614;47.576;7.524;2023-03-19T04:53:39;24.30;48.70
67817;DHT22;54614;47.576;7.524;2023-03-19T04:56:05;24.30;48.70
67817;DHT22;54614;47.576;7.524;2023-03-19T04:58:32;24.30;48.70
67817;DHT22;54614;47.576;7.524;2023-03-19T05:00:58;24.30;48.70
67817;DHT22;54614;47.576;7.524;2023-03-19T05:03:24;24.30;48.80
67817;DHT22;54614;47.576;7.524;2023-03-19T05:05:52;24.40;48.70
67817;DHT22;54614;47.576;7.524;2023-03-19T05:08:19;24.30;48.60
67817;DHT22;54614;47.576;7.524;2023-03-19T05:10:45;24.30;48.80
67817;DHT22;54614;47.576;7.524;2023-03-19T05:13:11;24.30;48.80
67817;DHT22;54614;47.576;7.524;2023-03-19T05:15:37;24.30;49.30
67817;DHT22;54614;47.576;7.524;2023-03-19T05:18:07;24.40;48.70
67817;DHT22;54614;47.576;7.524;2023-03-19T05:20:33;24.30;48.70
67817;DHT22;54614;47.576;7.524;2023-03-19T05:23:00;24.40;48.70
67817;DHT22;54614;47.576;7.524;2023-03-19T05:25:25;24.30;48.70
67817;DHT22;54614;47.576;7.524;2023-03-19T05:27:51;24.30;48.80
67817;DHT22;54614;47.576;7.524;2023-03-19T05:30:17;24.30;48.80
67817;DHT22;54614;47.576;7.524;2023-03-19T05:32:43;24.30;48.80
67817;DHT22;54614;47.576;7.524;2023-03-19T05:35:11;24.30;48.80
67817;DHT22;54614;47.576;7.524;2023-03-19T05:37:38;24.20;48.80
67817;DHT22;54614;47.576;7.524;2023-03-19T05:40:05;24.20;48.80
67817;DHT22;54614;47.576;7.524;2023-03-19T05:42:31;24.30;49.40
67817;DHT22;54614;47.576;7.524;2023-03-19T05:44:57;24.30;48.80
67817;DHT22;54614;47.576;7.524;2023-03-19T05:47:23;24.20;48.80
67817;DHT22;54614;47.576;7.524;2023-03-19T05:49:49;24.20;48.80
67817;DHT22;54614;47.576;7.524;2023-03-19T05:52:15;24.20;48.80
67817;DHT22;54614;47.576;7.524;2023-03-19T05:54:41;24.30;48.80
67817;DHT22;54614;47.576;7.524;2023-03-19T05:57:07;24.30;48.80
67817;DHT22;54614;47.576;7.524;2023-03-19T05:59:33;24.30;48.90
67817;DHT22;54614;47.576;7.524;2023-03-19T06:02:00;24.20;48.80
67817;DHT22;54614;47.576;7.524;2023-03-19T06:04:26;24.20;48.90
67817;DHT22;54614;47.576;7.524;2023-03-19T06:06:51;24.20;48.90
67817;DHT22;54614;47.576;7.524;2023-03-19T06:09:17;24.20;48.90
67817;DHT22;54614;47.576;7.524;2023-03-19T06:11:44;24.20;49.40
67817;DHT22;54614;47.576;7.524;2023-03-19T06:14:10;24.30;48.90
67817;DHT22;54614;47.576;7.524;2023-03-19T06:16:36;24.30;48.80
67817;DHT22;54614;47.576;7.524;2023-03-19T06:19:02;24.20;48.80
67817;DHT22;54614;47.576;7.524;2023-03-19T06:21:28;24.20;48.80
67817;DHT22;54614;47.576;7.524;2023-03-19T06:23:57;24.20;48.90
67817;DHT22;54614;47.576;7.524;2023-03-19T06:26:24;24.20;48.90
67817;DHT22;54614;47.576;7.524;2023-03-19T06:28:51;24.20;48.90
67817;DHT22;54614;47.576;7.524;2023-03-19T06:31:16;24.20;48.90
67817;DHT22;54614;47.576;7.524;2023-03-19T06:33:42;24.20;49.00
67817;DHT22;54614;47.576;7.524;2023-03-19T06:36:08;24.20;49.10
67817;DHT22;54614;47.576;7.524;2023-03-19T06:38:34;24.20;49.00
67817;DHT22;54614;47.576;7.524;2023-03-19T06:41:01;24.20;48.90
67817;DHT22;54614;47.576;7.524;2023-03-19T06:43:27;24.20;48.90
67817;DHT22;54614;47.576;7.524;2023-03-19T06:45:53;24.20;48.90
67817;DHT22;54614;47.576;7.524;2023-03-19T06:48:19;24.20;49.50
67817;DHT22;54614;47.576;7.524;2023-03-19T06:50:45;24.20;48.90
67817;DHT22;54614;47.576;7.524;2023-03-19T06:53:12;24.20;48.90
67817;DHT22;54614;47.576;7.524;2023-03-19T06:55:39;24.20;49.00
67817;DHT22;54614;47.576;7.524;2023-03-19T06:58:05;24.20;48.90
67817;DHT22;54614;47.576;7.524;2023-03-19T07:00:32;24.20;48.90
67817;DHT22;54614;47.576;7.524;2023-03-19T07:02:58;24.20;48.90
67817;DHT22;54614;47.576;7.524;2023-03-19T07:05:24;24.20;49.70
67817;DHT22;54614;47.576;7.524;2023-03-19T07:07:50;24.20;48.90
67817;DHT22;54614;47.576;7.524;2023-03-19T07:10:19;24.10;48.80
67817;DHT22;54614;47.576;7.524;2023-03-19T07:12:46;24.20;48.90
67817;DHT22;54614;47.576;7.524;2023-03-19T07:15:12;24.20;48.90
67817;DHT22;54614;47.576;7.524;2023-03-19T07:17:39;24.10;49.00
67817;DHT22;54614;47.576;7.524;2023-03-19T07:20:05;24.10;48.90
67817;DHT22;54614;47.576;7.524;2023-03-19T07:22:32;24.10;48.90
67817;DHT22;54614;47.576;7.524;2023-03-19T07:24:58;24.20;48.90
67817;DHT22;54614;47.576;7.524;2023-03-19T07:27:23;24.10;48.90
67817;DHT22;54614;47.576;7.524;2023-03-19T07:29:49;24.10;48.90
67817;DHT22;54614;47.576;7.524;2023-03-19T07:32:15;24.10;48.90
67817;DHT22;54614;47.576;7.524;2023-03-19T07:34:41;24.10;48.80
67817;DHT22;54614;47.576;7.524;2023-03-19T07:37:07;24.10;48.90
67817;DHT22;54614;47.576;7.524;2023-03-19T07:39:32;24.10;48.90
67817;DHT22;54614;47.576;7.524;2023-03-19T07:41:58;24.10;49.00
67817;DHT22;54614;47.576;7.524;2023-03-19T07:44:24;24.10;49.00
67817;DHT22;54614;47.576;7.524;2023-03-19T07:46:50;24.10;49.00
67817;DHT22;54614;47.576;7.524;2023-03-19T07:49:16;24.10;49.00
67817;DHT22;54614;47.576;7.524;2023-03-19T07:51:41;24.10;49.00
67817;DHT22;54614;47.576;7.524;2023-03-19T07:54:07;24.10;49.00
67817;DHT22;54614;47.576;7.524;2023-03-19T07:56:33;24.10;48.90
67817;DHT22;54614;47.576;7.524;2023-03-19T07:58:59;24.20;48.90
67817;DHT22;54614;47.576;7.524;2023-03-19T08:01:25;24.20;48.90
67817;DHT22;54614;47.576;7.524;2023-03-19T08:03:51;24.20;48.90
67817;DHT22;54614;47.576;7.524;2023-03-19T08:06:16;24.20;48.90
67817;DHT22;54614;47.576;7.524;2023-03-19T08:08:42;24.10;49.00
67817;DHT22;54614;47.576;7.524;2023-03-19T08:11:08;24.20;48.90
67817;DHT22;54614;47.576;7.524;2023-03-19T08:13:34;24.10;48.90
67817;DHT22;54614;47.576;7.524;2023-03-19T08:16:00;24.20;49.00
67817;DHT22;54614;47.576;7.524;2023-03-19T08:18:25;24.20;48.90
67817;DHT22;54614;47.576;7.524;2023-03-19T08:20:51;24.20;48.90
67817;DHT22;54614;47.576;7.524;2023-03-19T08:23:17;24.20;48.90
67817;DHT22;54614;47.576;7.524;2023-03-19T08:25:43;24.20;48.90
67817;DHT22;54614;47.576;7.524;2023-03-19T08:28:10;24.20;49.20
67817;DHT22;54614;47.576;7.524;2023-03-19T08:30:36;24.20;48.90
67817;DHT22;54614;47.576;7.524;2023-03-19T08:33:03;24.20;49.00
67817;DHT22;54614;47.576;7.524;2023-03-19T08:35:29;24.20;48.80
67817;DHT22;54614;47.576;7.524;2023-03-19T08:37:55;24.20;48.90
67817;DHT22;54614;47.576;7.524;2023-03-19T08:40:22;24.30;48.80
67817;DHT22;54614;47.576;7.524;2023-03-19T08:42:48;24.40;48.80
67817;DHT22;54614;47.576;7.524;2023-03-19T08:45:14;24.40;48.90
67817;DHT22;54614;47.576;7.524;2023-03-19T08:47:42;24.40;48.80
67817;DHT22;54614;47.576;7.524;2023-03-19T08:50:09;24.30;49.40
67817;DHT22;54614;47.576;7.524;2023-03-19T08:52:35;24.30;48.90
67817;DHT22;54614;47.576;7.524;2023-03-19T08:55:01;24.30;48.80
67817;DHT22;54614;47.576;7.524;2023-03-19T08:57:29;24.30;48.80
67817;DHT22;54614;47.576;7.524;2023-03-19T08:59:56;24.30;48.80
67817;DHT22;54614;47.576;7.524;2023-03-19T09:02:22;24.30;48.70
67817;DHT22;54614;47.576;7.524;2023-03-19T09:04:48;24.30;48.70
67817;DHT22;54614;47.576;7.524;2023-03-19T09:07:14;24.30;48.70
67817;DHT22;54614;47.576;7.524;2023-03-19T09:09:42;24.30;48.60
67817;DHT22;54614;47.576;7.524;2023-03-19T09:12:10;24.40;48.50
67817;DHT22;54614;47.576;7.524;2023-03-19T09:14:38;24.30;48.50
67817;DHT22;54614;47.576;7.524;2023-03-19T09:17:04;24.30;48.50
67817;DHT22;54614;47.576;7.524;2023-03-19T09:19:31;24.30;48.50
67817;DHT22;54614;47.576;7.524;2023-03-19T09:21:58;24.30;48.50
67817;DHT22;54614;47.576;7.524;2023-03-19T09:24:24;24.30;48.40
67817;DHT22;54614;47.576;7.524;2023-03-19T09:26:50;24.30;48.40
67817;DHT22;54614;47.576;7.524;2023-03-19T09:29:16;24.30;48.40
67817;DHT22;54614;47.576;7.524;2023-03-19T09:31:42;24.30;48.30
67817;DHT22;54614;47.576;7.524;2023-03-19T09:34:08;24.40;48.40
67817;DHT22;54614;47.576;7.524;2023-03-19T09:36:35;24.40;48.20
67817;DHT22;54614;47.576;7.524;2023-03-19T09:39:01;24.40;48.10
67817;DHT22;54614;47.576;7.524;2023-03-19T09:44:12;24.40;48.10
67817;DHT22;54614;47.576;7.524;2023-03-19T09:46:57;24.40;48.40
67817;DHT22;54614;47.576;7.524;2023-03-19T09:49:46;24.40;48.20
67817;DHT22;54614;47.576;7.524;2023-03-19T09:58:26;24.40;48.10
67817;DHT22;54614;47.576;7.524;2023-03-19T10:00:55;24.40;48.00
67817;DHT22;54614;47.576;7.524;2023-03-19T10:03:46;24.40;48.10
67817;DHT22;54614;47.576;7.524;2023-03-19T10:15:20;24.40;48.20
67817;DHT22;54614;47.576;7.524;2023-03-19T10:23:44;24.40;48.50
67817;DHT22;54614;47.576;7.524;2023-03-19T10:26:17;24.40;48.50
67817;DHT22;54614;47.576;7.524;2023-03-19T10:34:30;24.40;48.40
67817;DHT22;54614;47.576;7.524;2023-03-19T10:37:26;24.40;48.20
67817;DHT22;54614;47.576;7.524;2023-03-19T10:40:00;24.50;48.30
67817;DHT22;54614;47.576;7.524;2023-03-19T10:45:45;24.40;48.30
67817;DHT22;54614;47.576;7.524;2023-03-19T10:48:16;24.40;48.40
67817;DHT22;54614;47.576;7.524;2023-03-19T10:50:51;24.40;48.40
67817;DHT22;54614;47.576;7.524;2023-03-19T10:53:35;24.40;48.40
67817;DHT22;54614;47.576;7.524;2023-03-19T10:56:04;24.40;48.50
67817;DHT22;54614;47.576;7.524;2023-03-19T10:58:40;24.40;48.50
67817;DHT22;54614;47.576;7.524;2023-03-19T11:01:26;24.40;48.50
67817;DHT22;54614;47.576;7.524;2023-03-19T11:03:57;24.50;48.50
67817;DHT22;54614;47.576;7.524;2023-03-19T11:06:30;24.40;48.50
67817;DHT22;54614;47.576;7.524;2023-03-19T11:11:48;24.40;49.00
67817;DHT22;54614;47.576;7.524;2023-03-19T11:16:58;24.40;49.20
67817;DHT22;54614;47.576;7.524;2023-03-19T11:19:38;24.20;49.60
67817;DHT22;54614;47.576;7.524;2023-03-19T11:22:17;24.20;49.70
67817;DHT22;54614;47.576;7.524;2023-03-19T11:24:55;24.30;49.30
67817;DHT22;54614;47.576;7.524;2023-03-19T11:27:27;24.40;49.00
67817;DHT22;54614;47.576;7.524;2023-03-19T11:29:54;24.40;49.00
67817;DHT22;54614;47.576;7.524;2023-03-19T11:33:11;24.50;48.80
67817;DHT22;54614;47.576;7.524;2023-03-19T11:35:40;24.50;48.80
67817;DHT22;54614;47.576;7.524;2023-03-19T11:41:57;24.50;48.60
67817;DHT22;54614;47.576;7.524;2023-03-19T11:45:20;24.60;48.70
67817;DHT22;54614;47.576;7.524;2023-03-19T11:51:08;24.50;48.80
67817;DHT22;54614;47.576;7.524;2023-03-19T11:54:16;24.50;48.80
67817;DHT22;54614;47.576;7.524;2023-03-19T11:57:13;24.60;48.90
67817;DHT22;54614;47.576;7.524;2023-03-19T12:00:05;24.50;48.80
67817;DHT22;54614;47.576;7.524;2023-03-19T12:03:07;24.50;48.70
67817;DHT22;54614;47.576;7.524;2023-03-19T12:11:33;24.50;49.00
67817;DHT22;54614;47.576;7.524;2023-03-19T12:23:06;24.50;49.30
67817;DHT22;54614;47.576;7.524;2023-03-19T12:29:09;24.50;49.20
67817;DHT22;54614;47.576;7.524;2023-03-19T12:31:49;24.50;49.30
67817;DHT22;54614;47.576;7.524;2023-03-19T12:37:34;24.50;49.40
67817;DHT22;54614;47.576;7.524;2023-03-19T12:46:06;24.50;49.50
67817;DHT22;54614;47.576;7.524;2023-03-19T12:52:01;24.20;51.40
67817;DHT22;54614;47.576;7.524;2023-03-19T12:54:46;24.20;51.50
67817;DHT22;54614;47.576;7.524;2023-03-19T12:57:47;24.10;52.00
67817;DHT22;54614;47.576;7.524;2023-03-19T13:00:29;24.10;51.90
67817;DHT22;54614;47.576;7.524;2023-03-19T13:03:10;24.20;51.80
67817;DHT22;54614;47.576;7.524;2023-03-19T13:06:01;24.30;52.30
67817;DHT22;54614;47.576;7.524;2023-03-19T13:08:47;24.20;52.10
67817;DHT22;54614;47.576;7.524;2023-03-19T13:11:38;24.20;52.20
67817;DHT22;54614;47.576;7.524;2023-03-19T13:14:46;24.10;52.30
67817;DHT22;54614;47.576;7.524;2023-03-19T13:19:55;24.10;52.70
67817;DHT22;54614;47.576;7.524;2023-03-19T13:22:29;24.10;52.20
67817;DHT22;54614;47.576;7.524;2023-03-19T13:25:00;24.20;51.60
67817;DHT22;54614;47.576;7.524;2023-03-19T13:27:33;24.30;51.40
67817;DHT22;54614;47.576;7.524;2023-03-19T13:32:51;24.30;51.10
67817;DHT22;54614;47.576;7.524;2023-03-19T13:35:48;24.40;50.90
67817;DHT22;54614;47.576;7.524;2023-03-19T13:41:02;24.50;50.70
67817;DHT22;54614;47.576;7.524;2023-03-19T14:04:59;24.50;50.30
67817;DHT22;54614;47.576;7.524;2023-03-19T14:07:33;24.50;50.20
67817;DHT22;54614;47.576;7.524;2023-03-19T14:12:39;24.50;50.20
67817;DHT22;54614;47.576;7.524;2023-03-19T14:17:40;24.50;50.30
67817;DHT22;54614;47.576;7.524;2023-03-19T14:23:25;24.50;50.20
67817;DHT22;54614;47.576;7.524;2023-03-19T14:26:16;24.60;50.10
67817;DHT22;54614;47.576;7.524;2023-03-19T14:29:03;24.60;50.10
67817;DHT22;54614;47.576;7.524;2023-03-19T14:31:58;24.60;50.00
67817;DHT22;54614;47.576;7.524;2023-03-19T14:40:28;24.50;50.10
67817;DHT22;54614;47.576;7.524;2023-03-19T14:46:48;24.50;50.10
67817;DHT22;54614;47.576;7.524;2023-03-19T14:52:42;24.50;50.10
67817;DHT22;54614;47.576;7.524;2023-03-19T14:55:16;24.50;50.10
67817;DHT22;54614;47.576;7.524;2023-03-19T14:57:42;24.50;50.00
67817;DHT22;54614;47.576;7.524;2023-03-19T15:00:18;24.50;50.10
67817;DHT22;54614;47.576;7.524;2023-03-19T15:02:51;24.60;50.20
67817;DHT22;54614;47.576;7.524;2023-03-19T15:05:27;24.60;50.20
67817;DHT22;54614;47.576;7.524;2023-03-19T15:08:08;24.60;50.10
67817;DHT22;54614;47.576;7.524;2023-03-19T15:13:52;24.60;50.10
67817;DHT22;54614;47.576;7.524;2023-03-19T15:19:24;24.60;50.10
67817;DHT22;54614;47.576;7.524;2023-03-19T15:25:08;24.60;50.10
67817;DHT22;54614;47.576;7.524;2023-03-19T15:27:39;24.60;50.10
67817;DHT22;54614;47.576;7.524;2023-03-19T15:30:22;24.60;50.00
67817;DHT22;54614;47.576;7.524;2023-03-19T15:32:52;24.60;50.20
67817;DHT22;54614;47.576;7.524;2023-03-19T15:35:20;24.60;50.20
67817;DHT22;54614;47.576;7.524;2023-03-19T15:37:52;24.50;50.10
67817;DHT22;54614;47.576;7.524;2023-03-19T15:40:24;24.50;50.20
67817;DHT22;54614;47.576;7.524;2023-03-19T15:42:59;24.50;50.30
67817;DHT22;54614;47.576;7.524;2023-03-19T15:45:28;24.50;50.30
67817;DHT22;54614;47.576;7.524;2023-03-19T15:48:32;24.50;50.30
67817;DHT22;54614;47.576;7.524;2023-03-19T15:51:01;24.50;50.20
67817;DHT22;54614;47.576;7.524;2023-03-19T15:53:32;24.60;50.10
67817;DHT22;54614;47.576;7.524;2023-03-19T15:56:00;24.60;50.20
67817;DHT22;54614;47.576;7.524;2023-03-19T15:58:30;24.50;50.20
67817;DHT22;54614;47.576;7.524;2023-03-19T16:01:01;24.50;50.30
67817;DHT22;54614;47.576;7.524;2023-03-19T16:03:38;24.50;50.30
67817;DHT22;54614;47.576;7.524;2023-03-19T16:06:13;24.50;50.30
67817;DHT22;54614;47.576;7.524;2023-03-19T16:08:49;24.50;50.30
67817;DHT22;54614;47.576;7.524;2023-03-19T16:11:27;24.50;50.30
67817;DHT22;54614;47.576;7.524;2023-03-19T16:14:00;24.50;50.30
67817;DHT22;54614;47.576;7.524;2023-03-19T16:16:33;24.50;50.30
67817;DHT22;54614;47.576;7.524;2023-03-19T16:19:00;24.50;50.30
67817;DHT22;54614;47.576;7.524;2023-03-19T16:21:39;24.60;50.20
67817;DHT22;54614;47.576;7.524;2023-03-19T16:26:36;24.50;50.20
67817;DHT22;54614;47.576;7.524;2023-03-19T16:29:19;24.50;50.30
67817;DHT22;54614;47.576;7.524;2023-03-19T16:31:51;24.50;50.30
67817;DHT22;54614;47.576;7.524;2023-03-19T16:34:45;24.50;50.20
67817;DHT22;54614;47.576;7.524;2023-03-19T16:42:41;24.50;50.20
67817;DHT22;54614;47.576;7.524;2023-03-19T16:47:51;24.50;50.10
67817;DHT22;54614;47.576;7.524;2023-03-19T16:50:30;24.50;50.10
67817;DHT22;54614;47.576;7.524;2023-03-19T16:52:58;24.50;50.10
67817;DHT22;54614;47.576;7.524;2023-03-19T16:55:26;24.50;50.10
67817;DHT22;54614;47.576;7.524;2023-03-19T16:58:11;24.40;50.10
67817;DHT22;54614;47.576;7.524;2023-03-19T17:00:40;24.50;50.20
67817;DHT22;54614;47.576;7.524;2023-03-19T17:03:16;24.50;50.10
67817;DHT22;54614;47.576;7.524;2023-03-19T17:05:44;24.50;50.20
67817;DHT22;54614;47.576;7.524;2023-03-19T17:08:11;24.40;51.00
67817;DHT22;54614;47.576;7.524;2023-03-19T17:10:49;24.20;51.80
67817;DHT22;54614;47.576;7.524;2023-03-19T17:13:22;24.20;51.10
67817;DHT22;54614;47.576;7.524;2023-03-19T17:15:54;24.30;50.80
67817;DHT22;54614;47.576;7.524;2023-03-19T17:18:24;24.40;51.10
67817;DHT22;54614;47.576;7.524;2023-03-19T17:23:45;24.20;51.60
67817;DHT22;54614;47.576;7.524;2023-03-19T17:26:20;24.20;51.30
67817;DHT22;54614;47.576;7.524;2023-03-19T17:28:50;24.30;51.20
67817;DHT22;54614;47.576;7.524;2023-03-19T17:31:25;24.40;51.20
67817;DHT22;54614;47.576;7.524;2023-03-19T17:34:01;24.20;51.90
67817;DHT22;54614;47.576;7.524;2023-03-19T17:37:11;24.00;52.20
67817;DHT22;54614;47.576;7.524;2023-03-19T17:39:38;23.90;52.40
67817;DHT22;54614;47.576;7.524;2023-03-19T17:42:24;23.90;52.60
67817;DHT22;54614;47.576;7.524;2023-03-19T17:44:49;24.00;52.00
67817;DHT22;54614;47.576;7.524;2023-03-19T17:47:17;24.10;51.80
67817;DHT22;54614;47.576;7.524;2023-03-19T17:49:43;24.20;51.60
67817;DHT22;54614;47.576;7.524;2023-03-19T17:52:17;24.20;51.40
67817;DHT22;54614;47.576;7.524;2023-03-19T17:54:43;24.30;51.50
67817;DHT22;54614;47.576;7.524;2023-03-19T17:57:12;24.30;51.50
67817;DHT22;54614;47.576;7.524;2023-03-19T17:59:39;24.30;51.40
67817;DHT22;54614;47.576;7.524;2023-03-19T18:02:35;24.30;51.40
67817;DHT22;54614;47.576;7.524;2023-03-19T18:05:02;24.30;51.20
67817;DHT22;54614;47.576;7.524;2023-03-19T18:07:29;24.40;51.40
67817;DHT22;54614;47.576;7.524;2023-03-19T18:09:54;24.40;51.10
67817;DHT22;54614;47.576;7.524;2023-03-19T18:12:20;24.40;51.20
67817;DHT22;54614;47.576;7.524;2023-03-19T18:14:46;24.40;51.30
67817;DHT22;54614;47.576;7.524;2023-03-19T18:17:16;24.40;51.50
67817;DHT22;54614;47.576;7.524;2023-03-19T18:19:44;24.40;51.40
67817;DHT22;54614;47.576;7.524;2023-03-19T18:22:15;24.40;51.30
67817;DHT22;54614;47.576;7.524;2023-03-19T18:24:42;24.40;51.20